createdAt,value
2018-12-04T00:00:32.359Z,8.30
2018-12-04T00:02:59.056Z,8.10
2018-12-04T00:05:27.197Z,7.90
2018-12-04T00:07:53.716Z,7.90
2018-12-04T00:10:20.164Z,7.90
2018-12-04T00:12:46.709Z,7.90
2018-12-04T00:15:13.224Z,7.90
2018-12-04T00:17:39.767Z,7.70
2018-12-04T00:20:06.510Z,7.80
2018-12-04T00:22:33.168Z,7.90
2018-12-04T00:24:59.761Z,7.80
2018-12-04T00:27:26.224Z,7.90
2018-12-04T00:29:52.840Z,8.00
2018-12-04T00:32:19.439Z,8.00
2018-12-04T00:34:45.938Z,7.80
2018-12-04T00:37:12.388Z,7.80
2018-12-04T00:39:39.054Z,7.80
2018-12-04T00:42:05.494Z,7.70
2018-12-04T00:44:31.997Z,7.60
2018-12-04T00:46:58.503Z,7.70
2018-12-04T00:49:25.080Z,7.70
2018-12-04T00:51:51.532Z,7.50
2018-12-04T00:54:18.277Z,7.60
2018-12-04T00:56:44.717Z,7.70
2018-12-04T00:59:11.553Z,7.80
2018-12-04T01:01:38.137Z,7.80
2018-12-04T01:04:04.983Z,8.00
2018-12-04T01:06:32.073Z,7.90
2018-12-04T01:08:58.813Z,7.80
2018-12-04T01:11:25.418Z,7.90
2018-12-04T01:13:52.385Z,7.80
2018-12-04T01:16:19.326Z,7.80
2018-12-04T01:18:46.070Z,7.60
2018-12-04T01:21:12.865Z,7.60
2018-12-04T01:23:39.317Z,7.70
2018-12-04T01:26:06.036Z,7.60
2018-12-04T01:28:32.575Z,7.70
2018-12-04T01:30:59.129Z,7.60
2018-12-04T01:33:25.667Z,7.50
2018-12-04T01:35:52.033Z,7.60
2018-12-04T01:38:18.486Z,7.70
2018-12-04T01:40:44.965Z,7.80
2018-12-04T01:43:11.401Z,7.70
2018-12-04T01:45:39.717Z,7.60
2018-12-04T01:48:06.170Z,7.60
2018-12-04T01:50:32.726Z,7.70
2018-12-04T01:52:59.272Z,7.80
2018-12-04T01:55:26.766Z,7.60
2018-12-04T01:57:54.207Z,7.60
2018-12-04T02:00:21.745Z,7.50
2018-12-04T02:02:48.290Z,7.50
2018-12-04T02:05:15.056Z,7.60
2018-12-04T02:07:41.622Z,7.60
2018-12-04T02:10:09.130Z,7.70
2018-12-04T02:12:36.477Z,7.70
2018-12-04T02:15:03.379Z,7.70
2018-12-04T02:17:30.425Z,7.60
2018-12-04T02:19:56.896Z,7.50
2018-12-04T02:22:23.342Z,7.50
2018-12-04T02:24:49.801Z,7.50
2018-12-04T02:27:17.946Z,7.50
2018-12-04T02:29:44.469Z,7.50
2018-12-04T02:32:11.013Z,7.50
2018-12-04T02:34:37.462Z,7.50
2018-12-04T02:37:04.182Z,7.40
2018-12-04T02:39:30.620Z,7.20
2018-12-04T02:41:57.034Z,7.30
2018-12-04T02:44:23.462Z,7.30
2018-12-04T02:46:49.926Z,7.30
2018-12-04T02:49:16.357Z,7.30
2018-12-04T02:51:42.842Z,7.30
2018-12-04T02:54:09.508Z,7.20
2018-12-04T02:56:36.182Z,7.30
2018-12-04T02:59:02.808Z,7.20
2018-12-04T03:01:31.423Z,7.10
2018-12-04T03:03:57.969Z,7.20
2018-12-04T03:06:24.769Z,7.10
2018-12-04T03:08:51.338Z,7.20
2018-12-04T03:11:17.822Z,7.20
2018-12-04T03:13:44.248Z,7.20
2018-12-04T03:16:10.704Z,7.30
2018-12-04T03:18:37.149Z,7.30
2018-12-04T03:21:03.615Z,7.20
2018-12-04T03:23:30.066Z,7.20
2018-12-04T03:25:56.475Z,7.20
2018-12-04T03:28:23.040Z,7.20
2018-12-04T03:30:49.508Z,7.30
2018-12-04T03:33:26.089Z,7.20
2018-12-04T03:35:52.589Z,7.00
2018-12-04T03:38:19.218Z,7.10
2018-12-04T03:40:45.786Z,6.90
2018-12-04T03:43:12.447Z,7.10
2018-12-04T03:45:39.535Z,7.00
2018-12-04T03:48:05.990Z,7.00
2018-12-04T03:50:32.455Z,7.00
2018-12-04T03:52:58.892Z,7.00
2018-12-04T03:55:25.373Z,7.10
2018-12-04T03:57:52.051Z,7.00
2018-12-04T04:00:19.414Z,7.00
2018-12-04T04:02:45.846Z,6.90
2018-12-04T04:05:12.454Z,7.00
2018-12-04T04:07:40.298Z,7.00
2018-12-04T04:10:07.082Z,6.90
2018-12-04T04:12:33.526Z,6.90
2018-12-04T04:14:59.983Z,6.90
2018-12-04T04:17:26.433Z,6.80
2018-12-04T04:19:53.150Z,6.70
2018-12-04T04:22:19.701Z,6.80
2018-12-04T04:24:46.376Z,6.80
2018-12-04T04:27:12.828Z,6.80
2018-12-04T04:29:40.401Z,6.70
2018-12-04T04:32:06.848Z,6.60
2018-12-04T04:34:33.569Z,6.50
2018-12-04T04:37:00.213Z,6.50
2018-12-04T04:39:26.890Z,6.40
2018-12-04T04:41:53.429Z,6.30
2018-12-04T04:44:19.858Z,6.30
2018-12-04T04:46:46.323Z,6.30
2018-12-04T04:49:12.750Z,6.20
2018-12-04T04:51:39.727Z,6.30
2018-12-04T04:54:06.309Z,6.50
2018-12-04T04:56:32.909Z,6.40
2018-12-04T04:58:59.488Z,6.30
2018-12-04T05:01:26.061Z,6.40
2018-12-04T05:03:52.607Z,6.30
2018-12-04T05:06:19.170Z,6.30
2018-12-04T05:08:45.751Z,6.20
2018-12-04T05:11:12.415Z,6.10
2018-12-04T05:13:39.255Z,6.10
2018-12-04T05:16:05.848Z,6.00
2018-12-04T05:18:32.482Z,6.10
2018-12-04T05:20:59.043Z,6.00
2018-12-04T05:23:25.901Z,6.10
2018-12-04T05:25:52.804Z,6.20
2018-12-04T05:28:21.106Z,6.10
2018-12-04T05:30:48.487Z,6.10
2018-12-04T05:33:15.048Z,6.10
2018-12-04T05:35:41.613Z,6.00
2018-12-04T05:38:09.148Z,6.00
2018-12-04T05:40:37.322Z,5.90
2018-12-04T05:43:03.754Z,5.90
2018-12-04T05:45:30.335Z,5.90
2018-12-04T05:47:56.681Z,5.90
2018-12-04T05:50:23.145Z,5.90
2018-12-04T05:53:02.052Z,5.90
2018-12-04T05:55:28.517Z,5.90
2018-12-04T05:57:54.969Z,5.90
2018-12-04T06:00:21.781Z,5.90
2018-12-04T06:02:48.245Z,5.80
2018-12-04T06:05:14.781Z,5.80
2018-12-04T06:07:41.364Z,5.80
2018-12-04T06:10:07.875Z,5.90
2018-12-04T06:12:34.337Z,6.00
2018-12-04T06:15:00.790Z,5.90
2018-12-04T06:17:27.384Z,6.00
2018-12-04T06:19:53.830Z,5.90
2018-12-04T06:22:20.293Z,6.00
2018-12-04T06:24:46.736Z,5.90
2018-12-04T06:27:13.229Z,5.90
2018-12-04T06:29:39.661Z,5.80
2018-12-04T06:32:06.240Z,5.80
2018-12-04T06:34:32.686Z,5.80
2018-12-04T06:36:59.151Z,5.70
2018-12-04T06:39:25.583Z,5.70
2018-12-04T06:41:52.062Z,5.80
2018-12-04T06:44:18.495Z,5.70
2018-12-04T06:46:44.978Z,5.80
2018-12-04T06:49:11.348Z,5.80
2018-12-04T06:51:37.812Z,5.70
2018-12-04T06:54:04.472Z,5.70
2018-12-04T06:56:31.042Z,5.70
2018-12-04T06:58:57.482Z,5.70
2018-12-04T07:01:23.954Z,5.70
2018-12-04T07:03:50.401Z,5.70
2018-12-04T07:06:17.856Z,5.50
2018-12-04T07:08:44.678Z,5.60
2018-12-04T07:11:11.364Z,5.60
2018-12-04T07:13:37.798Z,5.60
2018-12-04T07:16:04.260Z,5.50
2018-12-04T07:18:30.685Z,5.50
2018-12-04T07:20:57.133Z,5.50
2018-12-04T07:23:23.586Z,5.50
2018-12-04T07:25:50.123Z,5.50
2018-12-04T07:28:16.586Z,5.60
2018-12-04T07:30:43.143Z,5.40
2018-12-04T07:33:09.671Z,5.60
2018-12-04T07:35:36.152Z,5.50
2018-12-04T07:38:02.656Z,5.60
2018-12-04T07:40:29.095Z,5.50
2018-12-04T07:42:55.769Z,5.60
2018-12-04T07:45:22.222Z,5.70
2018-12-04T07:47:48.786Z,5.60
2018-12-04T07:50:15.140Z,5.60
2018-12-04T07:52:41.605Z,5.60
2018-12-04T07:55:08.058Z,5.60
2018-12-04T07:57:34.722Z,5.60
2018-12-04T08:00:02.016Z,5.60
2018-12-04T08:02:28.655Z,5.70
2018-12-04T08:04:55.200Z,5.60
2018-12-04T08:07:21.686Z,5.60
2018-12-04T08:09:48.140Z,5.60
2018-12-04T08:12:15.717Z,5.60
2018-12-04T08:14:42.181Z,5.70
2018-12-04T08:17:08.857Z,5.60
2018-12-04T08:19:35.380Z,5.50
2018-12-04T08:22:02.063Z,5.60
2018-12-04T08:24:28.606Z,5.50
2018-12-04T08:26:55.294Z,5.60
2018-12-04T08:29:21.876Z,5.70
2018-12-04T08:31:48.377Z,5.80
2018-12-04T08:34:14.821Z,5.70
2018-12-04T08:36:41.281Z,5.70
2018-12-04T08:39:12.915Z,5.60
2018-12-04T08:41:36.504Z,5.50
2018-12-04T08:44:03.208Z,5.60
2018-12-04T08:46:29.658Z,5.80
2018-12-04T08:48:56.220Z,5.90
2018-12-04T08:51:22.654Z,5.90
2018-12-04T08:53:49.231Z,5.90
2018-12-04T08:56:15.588Z,5.90
2018-12-04T08:58:42.298Z,5.80
2018-12-04T09:01:08.847Z,5.90
2018-12-04T09:03:35.397Z,5.90
2018-12-04T09:06:01.929Z,5.90
2018-12-04T09:08:28.394Z,6.00
2018-12-04T09:10:55.043Z,6.00
2018-12-04T09:13:21.645Z,6.00
2018-12-04T09:15:48.177Z,6.00
2018-12-04T09:18:15.547Z,6.10
2018-12-04T09:20:43.733Z,6.10
2018-12-04T09:23:11.005Z,6.10
2018-12-04T09:25:37.803Z,6.10
2018-12-04T09:28:04.496Z,6.00
2018-12-04T09:30:32.760Z,6.20
2018-12-04T09:33:00.488Z,6.10
2018-12-04T09:35:27.118Z,6.10
2018-12-04T09:37:53.688Z,6.20
2018-12-04T09:40:20.136Z,6.20
2018-12-04T09:42:46.598Z,6.30
2018-12-04T09:45:13.255Z,6.30
2018-12-04T09:47:39.932Z,6.30
2018-12-04T09:50:06.723Z,6.20
2018-12-04T09:52:33.237Z,6.30
2018-12-04T09:54:59.717Z,6.30
2018-12-04T09:57:26.162Z,6.30
2018-12-04T09:59:52.760Z,6.40
2018-12-04T10:02:19.428Z,6.40
2018-12-04T10:04:47.464Z,6.30
2018-12-04T10:07:15.592Z,6.30
2018-12-04T10:09:43.784Z,6.50
2018-12-04T10:12:10.454Z,6.50
2018-12-04T10:14:36.929Z,6.40
2018-12-04T10:17:03.529Z,6.40
2018-12-04T10:19:30.223Z,6.50
2018-12-04T10:21:56.762Z,6.40
2018-12-04T10:24:23.437Z,6.60
2018-12-04T10:26:53.738Z,6.60
2018-12-04T10:29:20.397Z,6.50
2018-12-04T10:31:46.842Z,6.60
2018-12-04T10:34:13.399Z,6.60
2018-12-04T10:36:39.946Z,6.60
2018-12-04T10:39:06.844Z,6.50
2018-12-04T10:41:33.306Z,6.50
2018-12-04T10:43:59.882Z,6.50
2018-12-04T10:46:26.414Z,6.60
2018-12-04T10:48:53.011Z,6.60
2018-12-04T10:51:19.450Z,6.60
2018-12-04T10:53:46.011Z,6.50
2018-12-04T10:56:12.573Z,6.50
2018-12-04T10:58:39.140Z,6.50
2018-12-04T11:01:07.702Z,6.50
2018-12-04T11:03:37.320Z,6.40
2018-12-04T11:06:04.094Z,6.50
2018-12-04T11:08:30.720Z,6.40
2018-12-04T11:10:57.166Z,6.50
2018-12-04T11:13:23.596Z,6.60
2018-12-04T11:15:50.073Z,6.60
2018-12-04T11:18:16.623Z,6.50
2018-12-04T11:20:43.081Z,6.60
2018-12-04T11:23:09.559Z,6.60
2018-12-04T11:25:36.029Z,6.60
2018-12-04T11:28:02.481Z,6.60
2018-12-04T11:30:29.052Z,6.60
2018-12-04T11:32:55.506Z,6.60
2018-12-04T11:35:21.973Z,6.70
2018-12-04T11:37:48.323Z,6.60
2018-12-04T11:40:14.825Z,6.50
2018-12-04T11:42:41.168Z,6.60
2018-12-04T11:45:07.660Z,6.50
2018-12-04T11:47:34.102Z,6.40
2018-12-04T11:50:00.574Z,6.60
2018-12-04T11:52:27.110Z,6.60
2018-12-04T11:54:53.590Z,6.50
2018-12-04T11:57:20.249Z,6.60
2018-12-04T11:59:46.730Z,6.50
2018-12-04T12:02:13.179Z,6.40
2018-12-04T12:04:39.646Z,6.50
2018-12-04T12:07:06.193Z,6.60
2018-12-04T12:09:32.769Z,6.50
2018-12-04T12:11:59.210Z,6.50
2018-12-04T12:14:25.665Z,6.40
2018-12-04T12:16:52.221Z,6.40
2018-12-04T12:19:18.693Z,6.40
2018-12-04T12:21:45.146Z,6.50
2018-12-04T12:24:11.886Z,6.50
2018-12-04T12:26:38.461Z,6.40
2018-12-04T12:29:05.013Z,6.50
2018-12-04T12:31:31.389Z,6.50
2018-12-04T12:33:57.825Z,6.40
2018-12-04T12:36:24.400Z,6.60
2018-12-04T12:38:51.039Z,6.50
2018-12-04T12:41:17.619Z,6.60
2018-12-04T12:43:44.093Z,6.70
2018-12-04T12:46:10.681Z,6.80
2018-12-04T12:48:37.118Z,7.00
2018-12-04T12:51:03.603Z,7.00
2018-12-04T12:53:30.965Z,7.10
2018-12-04T12:55:57.530Z,7.20
2018-12-04T12:58:24.075Z,7.20
2018-12-04T13:00:50.653Z,7.40
2018-12-04T13:03:17.225Z,7.30
2018-12-04T13:05:45.425Z,7.50
2018-12-04T13:08:11.983Z,7.10
2018-12-04T13:10:38.441Z,7.20
2018-12-04T13:13:05.083Z,7.30
2018-12-04T13:15:31.672Z,7.60
2018-12-04T13:17:58.118Z,7.60
2018-12-04T13:20:24.697Z,7.40
2018-12-04T13:22:51.221Z,7.70
2018-12-04T13:25:17.714Z,8.00
2018-12-04T13:27:44.216Z,8.20
2018-12-04T13:30:10.991Z,8.40
2018-12-04T13:32:37.430Z,8.30
2018-12-04T13:35:04.290Z,8.20
2018-12-04T13:37:30.718Z,8.00
2018-12-04T13:39:57.201Z,8.10
2018-12-04T13:42:23.780Z,8.30
2018-12-04T13:44:50.226Z,8.10
2018-12-04T13:47:16.843Z,8.10
2018-12-04T13:49:43.300Z,8.00
2018-12-04T13:52:11.195Z,8.10
2018-12-04T13:54:37.644Z,8.10
2018-12-04T13:57:04.153Z,7.90
2018-12-04T13:59:30.701Z,8.00
2018-12-04T14:01:57.274Z,7.90
2018-12-04T14:04:23.739Z,7.70
2018-12-04T14:06:50.210Z,7.80
2018-12-04T14:09:16.769Z,7.80
2018-12-04T14:11:43.388Z,7.90
2018-12-04T14:14:09.934Z,7.70
2018-12-04T14:16:36.417Z,7.70
2018-12-04T14:19:03.174Z,7.40
2018-12-04T14:21:29.779Z,7.30
2018-12-04T14:23:56.218Z,7.20
2018-12-04T14:26:22.957Z,7.10
2018-12-04T14:28:49.396Z,6.90
2018-12-04T14:31:15.870Z,6.60
2018-12-04T14:33:42.313Z,6.60
2018-12-04T14:36:08.780Z,6.70
2018-12-04T14:38:35.229Z,6.50
2018-12-04T14:41:01.844Z,6.50
2018-12-04T14:43:28.395Z,6.20
2018-12-04T14:45:54.902Z,6.30
2018-12-04T14:48:21.492Z,6.20
2018-12-04T14:50:48.072Z,6.20
2018-12-04T14:53:14.790Z,6.20
2018-12-04T14:55:41.337Z,6.10
2018-12-04T14:58:07.857Z,6.20
2018-12-04T15:00:34.537Z,6.10
2018-12-04T15:03:01.152Z,5.90
2018-12-04T15:05:27.694Z,6.00
2018-12-04T15:07:54.248Z,6.00
2018-12-04T15:10:20.708Z,6.00
2018-12-04T15:12:47.279Z,5.80
2018-12-04T15:15:13.825Z,5.80
2018-12-04T15:17:40.288Z,5.70
2018-12-04T15:20:06.953Z,5.80
2018-12-04T15:22:33.629Z,5.70
2018-12-04T15:25:00.517Z,5.60
2018-12-04T15:27:27.373Z,5.70
2018-12-04T15:29:54.103Z,5.80
2018-12-04T15:32:20.671Z,5.70
2018-12-04T15:34:47.284Z,5.70
2018-12-04T15:37:13.850Z,5.70
2018-12-04T15:39:40.509Z,5.70
2018-12-04T15:42:08.072Z,5.70
2018-12-04T15:44:34.582Z,5.70
2018-12-04T15:47:01.146Z,5.60
2018-12-04T15:49:27.667Z,5.50
2018-12-04T15:51:54.222Z,5.40
2018-12-04T15:54:20.692Z,5.50
2018-12-04T15:56:47.397Z,5.50
2018-12-04T15:59:13.973Z,5.40
2018-12-04T16:01:40.648Z,5.50
2018-12-04T16:04:07.094Z,5.50
2018-12-04T16:06:33.449Z,5.50
2018-12-04T16:08:59.929Z,5.40
2018-12-04T16:11:26.478Z,5.40
2018-12-04T16:13:53.073Z,5.50
2018-12-04T16:16:19.622Z,5.50
2018-12-04T16:18:46.217Z,5.50
2018-12-04T16:21:12.709Z,5.50
2018-12-04T16:23:39.278Z,5.50
2018-12-04T16:26:05.825Z,5.40
2018-12-04T16:28:32.411Z,5.30
2018-12-04T16:31:00.562Z,5.40
2018-12-04T16:33:30.997Z,5.40
2018-12-04T16:35:59.152Z,5.50
2018-12-04T16:38:25.853Z,5.50
2018-12-04T16:40:52.295Z,5.60
2018-12-04T16:43:18.782Z,5.50
2018-12-04T16:45:45.366Z,5.30
2018-12-04T16:48:11.810Z,5.30
2018-12-04T16:50:38.301Z,5.50
2018-12-04T16:53:04.853Z,5.40
2018-12-04T16:55:31.466Z,5.50
2018-12-04T16:57:58.020Z,5.50
2018-12-04T17:00:26.829Z,5.50
2018-12-04T17:02:53.425Z,5.40
2018-12-04T17:05:19.871Z,5.40
2018-12-04T17:07:46.592Z,5.30
2018-12-04T17:10:13.029Z,5.30
2018-12-04T17:12:39.619Z,5.30
2018-12-04T17:15:06.894Z,5.30
2018-12-04T17:17:33.392Z,5.20
2018-12-04T17:19:59.882Z,5.10
2018-12-04T17:22:26.541Z,5.10
2018-12-04T17:24:53.154Z,5.20
2018-12-04T17:27:19.610Z,5.10
2018-12-04T17:29:46.196Z,5.10
2018-12-04T17:32:12.681Z,5.10
2018-12-04T17:34:39.289Z,5.20
2018-12-04T17:37:05.884Z,5.20
2018-12-04T17:39:32.377Z,5.20
2018-12-04T17:41:58.903Z,5.10
2018-12-04T17:44:25.462Z,5.10
2018-12-04T17:46:52.016Z,5.10
2018-12-04T17:49:18.656Z,5.10
2018-12-04T17:51:45.102Z,5.00
2018-12-04T17:54:11.576Z,5.20
2018-12-04T17:56:38.147Z,5.20
2018-12-04T17:59:04.608Z,5.30
2018-12-04T18:01:31.114Z,5.30
2018-12-04T18:03:57.621Z,5.10
2018-12-04T18:06:24.133Z,5.10
2018-12-04T18:08:52.334Z,5.00
2018-12-04T18:11:18.832Z,5.00
2018-12-04T18:13:45.425Z,5.00
2018-12-04T18:16:11.993Z,5.10
2018-12-04T18:18:38.746Z,5.10
2018-12-04T18:21:05.293Z,5.10
2018-12-04T18:23:31.854Z,5.10
2018-12-04T18:25:58.336Z,5.10
2018-12-04T18:28:24.821Z,5.00
2018-12-04T18:30:51.413Z,4.90
2018-12-04T18:33:18.007Z,4.90
2018-12-04T18:35:44.623Z,4.80
2018-12-04T18:38:11.216Z,4.80
2018-12-04T18:40:37.654Z,4.70
2018-12-04T18:43:04.373Z,4.80
2018-12-04T18:45:31.186Z,4.90
2018-12-04T18:47:57.814Z,4.80
2018-12-04T18:50:24.299Z,4.80
2018-12-04T18:52:50.841Z,4.80
2018-12-04T18:55:19.302Z,5.00
2018-12-04T18:57:45.910Z,4.90
2018-12-04T19:00:12.846Z,5.00
2018-12-04T19:02:40.949Z,4.80
2018-12-04T19:05:09.222Z,4.80
2018-12-04T19:07:35.941Z,4.80
2018-12-04T19:10:03.934Z,4.80
2018-12-04T19:12:31.037Z,4.80
2018-12-04T19:14:57.750Z,4.80
2018-12-04T19:17:24.209Z,4.60
2018-12-04T19:19:51.436Z,4.60
2018-12-04T19:22:19.693Z,4.60
2018-12-04T19:24:47.083Z,4.50
2018-12-04T19:27:13.998Z,4.70
2018-12-04T19:29:40.598Z,4.60
2018-12-04T19:32:07.163Z,4.50
2018-12-04T19:34:33.621Z,4.60
2018-12-04T19:37:00.107Z,4.50
2018-12-04T19:39:26.594Z,4.40
2018-12-04T19:41:53.173Z,4.40
2018-12-04T19:44:19.738Z,4.20
2018-12-04T19:46:46.304Z,4.20
2018-12-04T19:49:12.901Z,4.20
2018-12-04T19:51:39.528Z,4.10
2018-12-04T19:54:06.338Z,4.10
2018-12-04T19:56:33.383Z,4.10
2018-12-04T19:59:00.443Z,4.10
2018-12-04T20:01:27.333Z,4.20
2018-12-04T20:03:54.025Z,4.20
2018-12-04T20:06:20.606Z,4.20
2018-12-04T20:08:52.113Z,4.20
2018-12-04T20:11:19.049Z,4.20
2018-12-04T20:13:45.754Z,4.10
2018-12-04T20:16:13.251Z,4.20
2018-12-04T20:18:40.713Z,4.20
2018-12-04T20:21:07.364Z,4.20
2018-12-04T20:23:56.473Z,4.00
2018-12-04T20:26:24.730Z,4.10
2018-12-04T20:28:51.434Z,4.10
2018-12-04T20:31:17.921Z,4.10
2018-12-04T20:33:44.578Z,4.10
2018-12-04T20:36:11.140Z,4.00
2018-12-04T20:38:38.212Z,4.10
2018-12-04T20:41:05.357Z,4.10
2018-12-04T20:43:31.917Z,4.00
2018-12-04T20:46:05.652Z,4.00
2018-12-04T20:48:27.298Z,4.00
2018-12-04T20:50:54.369Z,4.10
2018-12-04T20:53:21.002Z,4.00
2018-12-04T20:55:47.714Z,4.00
2018-12-04T20:58:14.170Z,4.00
2018-12-04T21:00:40.634Z,4.00
2018-12-04T21:03:07.092Z,3.80
2018-12-04T21:05:33.710Z,3.90
2018-12-04T21:08:00.206Z,3.80
2018-12-04T21:10:26.888Z,3.80
2018-12-04T21:12:53.381Z,3.70
2018-12-04T21:15:20.209Z,3.70
2018-12-04T21:17:48.277Z,3.70
2018-12-04T21:20:15.126Z,3.60
2018-12-04T21:22:41.782Z,3.70
2018-12-04T21:25:08.238Z,3.70
2018-12-04T21:27:40.823Z,3.70
2018-12-04T21:30:13.658Z,3.70
2018-12-04T21:32:46.401Z,3.70
2018-12-04T21:35:19.215Z,3.70
2018-12-04T21:37:51.784Z,3.70
2018-12-04T21:40:24.445Z,3.70
2018-12-04T21:42:57.152Z,3.70
2018-12-04T21:45:30.002Z,3.70
2018-12-04T21:47:58.461Z,3.60
2018-12-04T21:50:24.996Z,3.60
2018-12-04T21:52:51.482Z,3.70
2018-12-04T21:55:17.933Z,3.70
2018-12-04T21:57:44.526Z,3.70
2018-12-04T22:00:11.386Z,3.70
2018-12-04T22:02:37.937Z,3.60
2018-12-04T22:05:04.751Z,3.60
2018-12-04T22:07:31.412Z,3.70
2018-12-04T22:09:57.870Z,3.80
2018-12-04T22:12:24.602Z,3.70
2018-12-04T22:14:51.039Z,3.80
2018-12-04T22:17:17.633Z,3.70
2018-12-04T22:19:44.247Z,3.80
2018-12-04T22:22:10.845Z,3.80
2018-12-04T22:24:37.474Z,3.80
2018-12-04T22:27:04.166Z,3.80
2018-12-04T22:29:30.752Z,3.80
2018-12-04T22:31:57.351Z,3.70
2018-12-04T22:34:23.862Z,3.70
2018-12-04T22:36:50.369Z,3.50
2018-12-04T22:39:16.862Z,3.60
2018-12-04T22:41:43.343Z,3.70
2018-12-04T22:44:09.823Z,3.60
2018-12-04T22:46:36.456Z,3.50
2018-12-04T22:49:03.227Z,3.60
2018-12-04T22:51:29.693Z,3.60
2018-12-04T22:53:56.309Z,3.50
2018-12-04T22:56:22.663Z,3.50
2018-12-04T22:58:49.358Z,3.50
2018-12-04T23:01:23.900Z,3.40
2018-12-04T23:03:50.456Z,3.30
2018-12-04T23:06:17.051Z,3.30
2018-12-04T23:08:45.637Z,3.30
2018-12-04T23:11:12.117Z,3.30
2018-12-04T23:13:38.682Z,3.30
2018-12-04T23:16:05.190Z,3.40
2018-12-04T23:18:31.740Z,3.30
2018-12-04T23:20:59.724Z,3.30
2018-12-04T23:23:26.257Z,3.30
2018-12-04T23:25:52.734Z,3.20
2018-12-04T23:28:19.268Z,3.10
2018-12-04T23:30:46.133Z,3.10
2018-12-04T23:33:12.673Z,3.10
2018-12-04T23:35:39.578Z,3.10
2018-12-04T23:38:07.717Z,3.10
2018-12-04T23:40:34.758Z,3.10
2018-12-04T23:43:01.196Z,3.10
2018-12-04T23:45:27.701Z,3.10
2018-12-04T23:47:55.162Z,3.10
2018-12-04T23:50:21.737Z,3.20
2018-12-04T23:52:48.286Z,3.20
2018-12-04T23:55:14.897Z,3.20
2018-12-04T23:57:41.358Z,3.30
